createdAt,value
2023-02-15T00:00:11.858Z,43.97
2023-02-15T00:02:39.661Z,45.70
2023-02-15T00:05:07.692Z,46.47
2023-02-15T00:07:34.953Z,41.60
2023-02-15T00:10:02.364Z,48.72
2023-02-15T00:12:29.775Z,44.45
2023-02-15T00:14:57.225Z,43.83
2023-02-15T00:17:24.493Z,44.17
2023-02-15T00:19:51.717Z,47.45
2023-02-15T00:22:19.089Z,44.53
2023-02-15T00:24:46.321Z,41.72
2023-02-15T00:27:13.783Z,40.63
2023-02-15T00:29:41.904Z,44.72
2023-02-15T00:32:09.761Z,41.17
2023-02-15T00:34:36.941Z,48.33
2023-02-15T00:37:04.294Z,48.47
2023-02-15T00:39:31.586Z,48.28
2023-02-15T00:41:59.945Z,50.85
2023-02-15T00:44:27.510Z,52.58
2023-02-15T00:46:57.358Z,49.05
2023-02-15T00:49:25.210Z,50.63
2023-02-15T00:51:52.462Z,52.38
2023-02-15T00:54:19.923Z,47.42
2023-02-15T00:56:47.343Z,44.80
2023-02-15T00:59:14.746Z,46.90
2023-02-15T01:01:41.930Z,51.83
2023-02-15T01:04:09.502Z,50.30
2023-02-15T01:06:36.764Z,51.05
2023-02-15T01:09:04.138Z,49.83
2023-02-15T01:11:37.816Z,47.28
2023-02-15T01:14:06.607Z,50.97
2023-02-15T01:16:34.011Z,51.38
2023-02-15T01:19:01.542Z,49.10
2023-02-15T01:21:28.900Z,49.90
2023-02-15T01:23:56.329Z,50.17
2023-02-15T01:26:23.653Z,52.63
2023-02-15T01:28:50.989Z,47.60
2023-02-15T01:31:21.850Z,44.20
2023-02-15T01:33:50.217Z,45.30
2023-02-15T01:36:18.696Z,42.42
2023-02-15T01:38:46.421Z,47.25
2023-02-15T01:41:27.480Z,46.33
2023-02-15T01:44:03.341Z,43.08
2023-02-15T01:46:34.739Z,42.58
2023-02-15T01:49:11.416Z,42.65
2023-02-15T01:51:41.150Z,43.15
2023-02-15T01:54:20.467Z,41.47
2023-02-15T01:56:55.512Z,43.28
2023-02-15T01:59:25.156Z,40.33
2023-02-15T02:01:59.934Z,38.00
2023-02-15T02:04:35.331Z,39.78
2023-02-15T02:07:03.713Z,39.40
2023-02-15T02:09:33.552Z,35.00
2023-02-15T02:12:04.392Z,34.60
2023-02-15T02:14:33.574Z,41.97
2023-02-15T02:17:42.789Z,39.95
2023-02-15T02:20:21.923Z,37.72
2023-02-15T02:23:11.029Z,34.72
2023-02-15T02:26:09.254Z,33.72
2023-02-15T02:28:48.427Z,34.10
2023-02-15T02:32:00.994Z,32.45
2023-02-15T02:34:38.397Z,37.35
2023-02-15T02:37:30.583Z,32.63
2023-02-15T02:40:11.737Z,33.38
2023-02-15T02:42:57.593Z,37.75
2023-02-15T02:45:45.903Z,38.22
2023-02-15T02:48:29.787Z,37.00
2023-02-15T02:50:57.016Z,37.97
2023-02-15T02:53:24.631Z,38.78
2023-02-15T02:56:00.340Z,35.28
2023-02-15T02:58:31.233Z,34.72
2023-02-15T03:01:07.010Z,35.10
2023-02-15T03:03:41.129Z,34.47
2023-02-15T03:06:24.028Z,40.08
2023-02-15T03:09:15.657Z,37.35
2023-02-15T03:11:45.353Z,31.83
2023-02-15T03:14:15.631Z,33.70
2023-02-15T03:16:47.753Z,34.53
2023-02-15T03:19:19.109Z,32.65
2023-02-15T03:22:04.987Z,40.40
2023-02-15T03:24:55.017Z,33.03
2023-02-15T03:27:32.560Z,31.85
2023-02-15T03:30:03.628Z,32.13
2023-02-15T03:32:33.740Z,29.40
2023-02-15T03:35:01.400Z,31.90
2023-02-15T03:37:47.456Z,30.15
2023-02-15T03:40:46.032Z,30.20
2023-02-15T03:43:34.622Z,28.60
2023-02-15T03:46:34.145Z,28.77
2023-02-15T03:49:16.888Z,30.80
2023-02-15T03:51:47.531Z,28.70
2023-02-15T03:54:42.255Z,29.38
2023-02-15T03:57:32.230Z,33.13
2023-02-15T04:00:20.336Z,31.38
2023-02-15T04:03:06.759Z,29.83
2023-02-15T04:05:34.210Z,32.28
2023-02-15T04:08:01.649Z,31.95
2023-02-15T04:10:47.933Z,29.02
2023-02-15T04:13:15.532Z,32.60
2023-02-15T04:16:01.807Z,31.33
2023-02-15T04:18:47.853Z,34.13
2023-02-15T04:21:33.490Z,33.00
2023-02-15T04:24:19.026Z,32.17
2023-02-15T04:26:46.809Z,26.88
2023-02-15T04:29:14.130Z,29.20
2023-02-15T04:31:41.544Z,29.33
2023-02-15T04:34:09.002Z,26.10
2023-02-15T04:36:36.237Z,27.25
2023-02-15T04:39:03.492Z,27.00
2023-02-15T04:41:30.855Z,26.98
2023-02-15T04:44:01.910Z,29.02
2023-02-15T04:46:29.882Z,25.35
2023-02-15T04:48:57.666Z,25.52
2023-02-15T04:51:25.523Z,26.63
2023-02-15T04:53:54.070Z,25.92
2023-02-15T04:56:22.506Z,24.73
2023-02-15T04:58:49.873Z,28.90
2023-02-15T05:01:17.641Z,27.75
2023-02-15T05:03:44.981Z,26.15
2023-02-15T05:06:12.593Z,26.92
2023-02-15T05:08:39.976Z,27.40
2023-02-15T05:11:07.257Z,23.52
2023-02-15T05:13:34.617Z,26.73
2023-02-15T05:16:02.199Z,27.13
2023-02-15T05:18:29.701Z,30.15
2023-02-15T05:20:57.196Z,25.52
2023-02-15T05:23:24.562Z,29.70
2023-02-15T05:26:10.638Z,27.77
2023-02-15T05:28:39.428Z,24.65
2023-02-15T05:31:12.866Z,28.52
2023-02-15T05:36:08.633Z,31.40
2023-02-15T05:38:38.269Z,31.08
2023-02-15T05:41:06.456Z,26.38
2023-02-15T05:43:34.410Z,30.98
2023-02-15T05:46:03.006Z,26.80
2023-02-15T05:48:31.011Z,24.13
2023-02-15T05:51:10.417Z,26.45
2023-02-15T05:53:39.584Z,29.35
2023-02-15T05:56:09.569Z,26.67
2023-02-15T05:58:39.713Z,26.45
2023-02-15T06:01:16.605Z,25.38
2023-02-15T06:03:44.098Z,27.67
2023-02-15T06:06:11.811Z,26.27
2023-02-15T06:08:39.357Z,26.70
2023-02-15T06:11:07.137Z,27.67
2023-02-15T06:13:38.233Z,23.05
2023-02-15T06:16:07.536Z,31.02
2023-02-15T06:18:35.700Z,26.90
2023-02-15T06:21:03.348Z,25.20
2023-02-15T06:23:31.112Z,26.15
2023-02-15T06:25:58.640Z,23.33
2023-02-15T06:28:26.878Z,26.00
2023-02-15T06:30:54.168Z,24.08
2023-02-15T06:33:24.779Z,26.83
2023-02-15T06:35:57.115Z,28.70
2023-02-15T06:38:24.272Z,25.00
2023-02-15T06:40:51.506Z,30.08
2023-02-15T06:43:18.923Z,26.83
2023-02-15T06:45:46.403Z,28.75
2023-02-15T06:48:13.580Z,30.95
2023-02-15T06:50:42.339Z,27.40
2023-02-15T06:53:11.134Z,26.02
2023-02-15T06:55:38.476Z,26.38
2023-02-15T06:58:05.764Z,26.30
2023-02-15T07:00:33.077Z,30.42
2023-02-15T07:03:00.614Z,27.17
2023-02-15T07:05:32.749Z,25.00
2023-02-15T07:08:01.533Z,26.13
2023-02-15T07:10:29.689Z,24.88
2023-02-15T07:12:57.626Z,25.30
2023-02-15T07:15:25.637Z,25.92
2023-02-15T07:17:53.361Z,29.42
2023-02-15T07:20:23.065Z,27.83
2023-02-15T07:22:51.521Z,28.60
2023-02-15T07:25:19.639Z,27.63
2023-02-15T07:27:47.167Z,24.20
2023-02-15T07:30:17.341Z,25.80
2023-02-15T07:33:05.468Z,24.73
2023-02-15T07:35:33.852Z,25.30
2023-02-15T07:38:02.404Z,29.00
2023-02-15T07:40:29.827Z,24.95
2023-02-15T07:43:00.498Z,23.90
2023-02-15T07:45:28.297Z,23.45
2023-02-15T07:47:55.606Z,24.73
2023-02-15T07:50:23.223Z,24.95
2023-02-15T07:52:50.390Z,25.52
2023-02-15T07:55:17.741Z,25.90
2023-02-15T07:57:46.512Z,24.65
2023-02-15T08:00:15.647Z,28.88
2023-02-15T08:02:43.497Z,28.50
2023-02-15T08:05:10.874Z,31.73
2023-02-15T08:07:38.217Z,26.55
2023-02-15T08:10:07.080Z,27.13
2023-02-15T08:12:34.470Z,28.17
2023-02-15T08:17:57.384Z,31.90
2023-02-15T08:20:25.190Z,27.92
2023-02-15T08:22:52.498Z,30.13
2023-02-15T08:25:19.892Z,34.75
2023-02-15T08:27:47.159Z,28.48
2023-02-15T08:30:15.419Z,29.13
2023-02-15T08:32:43.039Z,27.98
2023-02-15T08:35:11.085Z,29.30
2023-02-15T08:37:38.331Z,37.20
2023-02-15T08:40:06.611Z,35.25
2023-02-15T08:42:35.250Z,36.95
2023-02-15T08:45:02.571Z,35.33
2023-02-15T08:47:35.054Z,35.60
2023-02-15T08:50:03.761Z,42.73
2023-02-15T08:52:31.390Z,38.85
2023-02-15T08:54:58.545Z,43.63
2023-02-15T08:57:25.887Z,40.47
2023-02-15T08:59:56.604Z,43.22
2023-02-15T09:02:24.346Z,45.65
2023-02-15T09:04:56.817Z,36.67
2023-02-15T09:07:26.427Z,46.87
2023-02-15T09:09:54.630Z,43.90
2023-02-15T09:12:22.568Z,44.72
2023-02-15T09:14:49.848Z,43.70
2023-02-15T09:17:17.120Z,44.78
2023-02-15T09:19:48.595Z,44.72
2023-02-15T09:22:17.801Z,50.53
2023-02-15T09:24:45.372Z,39.55
2023-02-15T09:27:12.745Z,42.75
2023-02-15T09:29:40.925Z,41.55
2023-02-15T09:32:09.999Z,44.13
2023-02-15T09:34:41.367Z,40.78
2023-02-15T09:37:08.898Z,37.65
2023-02-15T09:39:44.969Z,37.33
2023-02-15T09:42:44.674Z,38.83
2023-02-15T09:46:16.924Z,27.85
2023-02-15T09:48:53.741Z,32.85
2023-02-15T09:51:29.061Z,29.95
2023-02-15T09:54:17.752Z,24.48
2023-02-15T09:57:35.600Z,26.50
2023-02-15T10:00:26.193Z,21.05
2023-02-15T10:03:22.885Z,25.83
2023-02-15T10:06:09.025Z,25.30
2023-02-15T10:08:43.360Z,21.70
2023-02-15T10:11:37.046Z,21.58
2023-02-15T10:14:17.230Z,20.05
2023-02-15T10:16:53.104Z,20.02
2023-02-15T10:19:32.482Z,22.80
2023-02-15T10:22:15.037Z,17.90
2023-02-15T10:24:47.786Z,16.65
2023-02-15T10:27:24.639Z,20.52
2023-02-15T10:30:11.092Z,18.90
2023-02-15T10:32:55.487Z,14.88
2023-02-15T10:35:55.405Z,19.52
2023-02-15T10:38:50.015Z,15.32
2023-02-15T10:41:38.424Z,17.58
2023-02-15T10:44:28.869Z,15.20
2023-02-15T10:47:31.068Z,15.98
2023-02-15T10:50:28.856Z,15.70
2023-02-15T10:53:15.398Z,16.48
2023-02-15T10:55:53.667Z,20.90
2023-02-15T10:58:47.289Z,14.70
2023-02-15T11:01:47.026Z,14.60
2023-02-15T11:04:17.557Z,16.05
2023-02-15T11:06:53.470Z,14.18
2023-02-15T11:09:24.335Z,17.08
2023-02-15T11:11:55.254Z,18.25
2023-02-15T11:14:39.309Z,13.52
2023-02-15T11:17:17.825Z,19.52
2023-02-15T11:20:02.048Z,13.45
2023-02-15T11:22:31.955Z,15.32
2023-02-15T11:25:01.331Z,12.00
2023-02-15T11:27:36.232Z,16.67
2023-02-15T11:30:14.201Z,14.85
2023-02-15T11:32:46.179Z,16.67
2023-02-15T11:35:13.522Z,12.25
2023-02-15T11:37:47.636Z,13.00
2023-02-15T11:40:20.984Z,11.95
2023-02-15T11:45:26.130Z,9.45
2023-02-15T11:47:53.962Z,13.18
2023-02-15T11:50:26.885Z,9.55
2023-02-15T11:52:59.534Z,9.88
2023-02-15T11:55:32.227Z,7.88
2023-02-15T11:58:12.560Z,9.25
2023-02-15T12:00:49.660Z,11.00
2023-02-15T12:03:46.082Z,12.23
2023-02-15T12:06:20.735Z,11.07
2023-02-15T12:08:55.759Z,9.88
2023-02-15T12:11:30.830Z,10.00
2023-02-15T12:14:06.572Z,12.13
2023-02-15T12:16:57.006Z,11.13
2023-02-15T12:19:41.413Z,11.60
2023-02-15T12:22:33.404Z,9.57
2023-02-15T12:25:03.435Z,11.27
2023-02-15T12:27:33.535Z,10.38
2023-02-15T12:30:08.516Z,10.85
2023-02-15T12:32:48.639Z,10.60
2023-02-15T12:35:23.271Z,10.88
2023-02-15T12:38:01.961Z,9.63
2023-02-15T12:40:34.480Z,9.70
2023-02-15T12:43:02.018Z,10.98
2023-02-15T12:45:32.134Z,12.05
2023-02-15T12:48:15.510Z,8.90
2023-02-15T12:50:45.258Z,7.93
2023-02-15T12:53:24.205Z,12.13
2023-02-15T12:55:57.586Z,8.00
2023-02-15T12:58:26.450Z,7.20
2023-02-15T13:01:10.751Z,7.85
2023-02-15T13:03:52.772Z,10.13
2023-02-15T13:06:20.264Z,11.23
2023-02-15T13:08:50.932Z,8.15
2023-02-15T13:11:42.760Z,6.75
2023-02-15T13:14:27.194Z,8.27
2023-02-15T13:17:00.391Z,6.50
2023-02-15T13:19:37.611Z,6.68
2023-02-15T13:22:11.848Z,6.82
2023-02-15T13:24:55.075Z,5.93
2023-02-15T13:27:28.485Z,7.38
2023-02-15T13:29:59.988Z,7.50
2023-02-15T13:32:42.233Z,7.22
2023-02-15T13:35:18.106Z,8.43
2023-02-15T13:38:11.591Z,6.68
2023-02-15T13:40:51.276Z,8.52
2023-02-15T13:43:24.288Z,6.50
2023-02-15T13:46:06.850Z,4.85
2023-02-15T13:48:50.321Z,7.83
2023-02-15T13:51:33.610Z,8.18
2023-02-15T13:54:33.125Z,8.95
2023-02-15T13:57:22.328Z,8.48
2023-02-15T14:00:00.161Z,6.72
2023-02-15T14:02:49.095Z,6.55
2023-02-15T14:05:30.718Z,7.97
2023-02-15T14:08:13.879Z,10.02
2023-02-15T14:10:59.510Z,6.72
2023-02-15T14:13:58.677Z,9.32
2023-02-15T14:16:42.287Z,5.57
2023-02-15T14:19:33.908Z,8.57
2023-02-15T14:22:21.261Z,8.60
2023-02-15T14:25:05.619Z,8.13
2023-02-15T14:27:45.066Z,6.93
2023-02-15T14:30:24.016Z,8.43
2023-02-15T14:33:01.477Z,6.32
2023-02-15T14:35:31.357Z,8.73
2023-02-15T14:38:10.646Z,6.15
2023-02-15T14:41:00.600Z,9.85
2023-02-15T14:43:52.912Z,7.28
2023-02-15T14:46:38.338Z,7.00
2023-02-15T14:49:12.637Z,5.40
2023-02-15T14:51:47.029Z,3.70
2023-02-15T14:54:17.393Z,4.38
2023-02-15T14:57:03.961Z,4.07
2023-02-15T14:59:47.013Z,4.90
2023-02-15T15:02:24.280Z,12.38
2023-02-15T15:04:57.651Z,4.45
2023-02-15T15:07:37.780Z,5.32
2023-02-15T15:10:27.205Z,4.10
2023-02-15T15:12:58.823Z,4.65
2023-02-15T15:15:29.775Z,3.30
2023-02-15T15:18:06.638Z,3.58
2023-02-15T15:20:51.584Z,4.93
2023-02-15T15:23:24.990Z,6.47
2023-02-15T15:28:35.630Z,7.07
2023-02-15T15:31:40.726Z,2.75
2023-02-15T15:34:47.964Z,3.00
2023-02-15T15:37:27.384Z,10.85
2023-02-15T15:40:08.617Z,4.88
2023-02-15T15:42:53.679Z,5.45
2023-02-15T15:45:59.313Z,5.18
2023-02-15T15:48:39.893Z,2.83
2023-02-15T15:51:34.533Z,4.15
2023-02-15T15:54:03.785Z,3.85
2023-02-15T15:56:36.794Z,5.95
2023-02-15T15:59:08.317Z,3.40
2023-02-15T16:01:44.235Z,5.15
2023-02-15T16:04:14.455Z,4.97
2023-02-15T16:06:43.051Z,4.38
2023-02-15T16:09:25.301Z,5.43
2023-02-15T16:12:02.869Z,4.13
2023-02-15T16:14:44.078Z,6.43
2023-02-15T16:17:37.435Z,4.80
2023-02-15T16:20:15.910Z,4.32
2023-02-15T16:22:43.695Z,6.90
2023-02-15T16:25:37.449Z,5.72
2023-02-15T16:30:37.925Z,3.75
2023-02-15T16:33:12.849Z,5.10
2023-02-15T16:36:00.631Z,5.68
2023-02-15T16:38:44.060Z,3.83
2023-02-15T16:41:15.101Z,6.70
2023-02-15T16:43:46.955Z,2.85
2023-02-15T16:46:23.774Z,3.70
2023-02-15T16:48:55.166Z,3.25
2023-02-15T16:51:30.053Z,4.93
2023-02-15T16:54:02.120Z,6.28
2023-02-15T16:56:33.133Z,26.35
2023-02-15T16:59:04.831Z,78.57
2023-02-15T17:01:34.226Z,82.95
2023-02-15T17:04:24.368Z,48.00
2023-02-15T17:07:04.502Z,99.85
2023-02-15T17:09:34.323Z,45.72
2023-02-15T17:12:03.762Z,25.52
2023-02-15T17:14:36.850Z,14.82
2023-02-15T17:17:14.515Z,7.65
2023-02-15T17:19:54.806Z,6.20
2023-02-15T17:22:25.625Z,3.17
2023-02-15T17:25:00.560Z,5.75
2023-02-15T17:27:32.367Z,5.47
2023-02-15T17:30:12.840Z,7.18
2023-02-15T17:32:55.198Z,5.13
2023-02-15T17:35:30.690Z,2.58
2023-02-15T17:38:28.529Z,6.03
2023-02-15T17:40:55.824Z,11.90
2023-02-15T17:43:23.553Z,18.80
2023-02-15T17:45:52.852Z,18.90
2023-02-15T17:48:33.392Z,19.38
2023-02-15T17:51:04.516Z,17.60
2023-02-15T17:53:34.022Z,19.23
2023-02-15T17:56:10.657Z,32.97
2023-02-15T17:58:38.702Z,31.67
2023-02-15T18:01:32.968Z,28.08
2023-02-15T18:04:18.617Z,32.13
2023-02-15T18:07:04.533Z,26.23
2023-02-15T18:09:50.938Z,16.13
2023-02-15T18:12:25.093Z,17.63
2023-02-15T18:14:56.478Z,13.90
2023-02-15T18:17:34.496Z,12.50
2023-02-15T18:20:07.339Z,10.88
2023-02-15T18:22:34.666Z,9.45
2023-02-15T18:25:02.232Z,14.27
2023-02-15T18:27:29.972Z,13.15
2023-02-15T18:29:58.291Z,17.40
2023-02-15T18:32:37.397Z,15.90
2023-02-15T18:35:05.888Z,24.90
2023-02-15T18:37:34.454Z,41.53
2023-02-15T18:40:05.405Z,48.63
2023-02-15T18:42:35.772Z,58.22
2023-02-15T18:45:19.077Z,47.22
2023-02-15T18:47:46.653Z,40.38
2023-02-15T18:50:19.111Z,30.42
2023-02-15T18:52:49.080Z,28.67
2023-02-15T18:55:24.509Z,27.58
2023-02-15T18:57:54.325Z,28.50
2023-02-15T19:00:28.880Z,40.88
2023-02-15T19:02:57.287Z,47.05
2023-02-15T19:05:29.362Z,42.05
2023-02-15T19:07:59.749Z,29.80
2023-02-15T19:10:31.679Z,23.63
2023-02-15T19:13:00.267Z,14.95
2023-02-15T19:15:33.137Z,12.38
2023-02-15T19:18:00.471Z,12.75
2023-02-15T19:20:32.797Z,10.38
2023-02-15T19:23:02.019Z,9.68
2023-02-15T19:25:32.596Z,15.00
2023-02-15T19:28:01.679Z,11.05
2023-02-15T19:30:31.786Z,8.48
2023-02-15T19:33:00.652Z,7.50
2023-02-15T19:35:32.216Z,6.65
2023-02-15T19:38:03.479Z,10.75
2023-02-15T19:40:33.585Z,13.63
2023-02-15T19:43:01.084Z,10.35
2023-02-15T19:45:31.343Z,12.88
2023-02-15T19:48:01.646Z,14.70
2023-02-15T19:50:31.553Z,16.65
2023-02-15T19:52:59.311Z,18.40
2023-02-15T19:55:32.198Z,16.75
2023-02-15T19:58:01.290Z,15.32
2023-02-15T20:00:33.956Z,14.45
2023-02-15T20:03:05.039Z,15.50
2023-02-15T20:05:35.452Z,30.75
2023-02-15T20:08:04.540Z,40.72
2023-02-15T20:10:32.499Z,41.90
2023-02-15T20:12:59.851Z,39.28
2023-02-15T20:15:30.544Z,38.10
2023-02-15T20:17:59.964Z,51.55
2023-02-15T20:20:31.761Z,115.38
2023-02-15T20:22:59.148Z,86.38
2023-02-15T20:25:33.698Z,65.55
2023-02-15T20:28:02.060Z,54.15
2023-02-15T20:30:33.076Z,57.95
2023-02-15T20:33:00.431Z,76.45
2023-02-15T20:35:29.076Z,79.13
2023-02-15T20:38:00.656Z,96.82
2023-02-15T20:40:33.208Z,100.78
2023-02-15T20:43:01.578Z,110.07
2023-02-15T20:45:32.157Z,109.47
2023-02-15T20:48:02.048Z,117.03
2023-02-15T20:50:32.425Z,120.85
2023-02-15T20:53:03.105Z,132.93
2023-02-15T20:55:33.968Z,137.88
2023-02-15T20:58:01.489Z,147.77
2023-02-15T21:00:32.128Z,146.07
2023-02-15T21:03:01.305Z,147.50
2023-02-15T21:05:33.205Z,143.13
2023-02-15T21:08:02.567Z,148.80
2023-02-15T21:10:33.533Z,139.85
2023-02-15T21:13:02.585Z,138.52
2023-02-15T21:15:35.815Z,150.35
2023-02-15T21:18:12.704Z,133.85
2023-02-15T21:20:45.943Z,156.82
2023-02-15T21:23:16.089Z,156.25
2023-02-15T21:25:44.683Z,179.50
2023-02-15T21:28:21.543Z,156.07
2023-02-15T21:30:50.135Z,147.68
2023-02-15T21:33:18.311Z,143.98
2023-02-15T21:35:49.636Z,124.25
2023-02-15T21:38:21.701Z,122.32
2023-02-15T21:40:49.610Z,106.50
2023-02-15T21:43:44.339Z,91.45
2023-02-15T21:46:37.313Z,68.47
2023-02-15T21:49:09.321Z,49.60
2023-02-15T21:51:55.514Z,73.55
2023-02-15T21:54:23.045Z,77.72
2023-02-15T21:56:51.603Z,68.40
2023-02-15T21:59:19.049Z,74.22
2023-02-15T22:01:51.702Z,61.70
2023-02-15T22:04:26.962Z,72.37
2023-02-15T22:06:55.687Z,72.63
2023-02-15T22:09:26.261Z,78.45
2023-02-15T22:12:02.132Z,81.60
2023-02-15T22:14:41.556Z,89.32
2023-02-15T22:17:16.585Z,82.75
2023-02-15T22:19:45.774Z,96.43
2023-02-15T22:22:13.226Z,95.80
2023-02-15T22:24:41.213Z,105.97
2023-02-15T22:27:17.916Z,92.70
2023-02-15T22:29:45.445Z,98.43
2023-02-15T22:32:22.160Z,87.90
2023-02-15T22:34:50.444Z,64.15
2023-02-15T22:37:17.887Z,61.10
2023-02-15T22:39:45.417Z,84.05
2023-02-15T22:42:25.761Z,70.25
2023-02-15T22:44:56.456Z,79.28
2023-02-15T22:47:27.206Z,74.90
2023-02-15T22:49:55.416Z,65.72
2023-02-15T22:52:22.765Z,62.78
2023-02-15T22:54:50.320Z,65.35
2023-02-15T22:57:29.658Z,51.25
2023-02-15T22:59:58.486Z,50.92
2023-02-15T23:02:26.013Z,44.55
2023-02-15T23:04:54.369Z,51.35
2023-02-15T23:07:23.317Z,47.85
2023-02-15T23:09:51.397Z,35.65
2023-02-15T23:12:29.176Z,37.92
2023-02-15T23:14:57.774Z,30.70
2023-02-15T23:17:25.168Z,29.13
2023-02-15T23:19:52.484Z,28.75
2023-02-15T23:22:20.831Z,27.88
2023-02-15T23:24:53.754Z,27.58
2023-02-15T23:27:39.624Z,24.95
2023-02-15T23:30:13.828Z,26.10
2023-02-15T23:32:41.657Z,23.23
2023-02-15T23:35:17.413Z,22.63
2023-02-15T23:37:49.156Z,21.88
2023-02-15T23:40:37.889Z,21.17
2023-02-15T23:43:06.628Z,15.18
2023-02-15T23:45:38.649Z,15.18
2023-02-15T23:48:36.656Z,15.60
2023-02-15T23:51:06.301Z,15.88
2023-02-15T23:53:34.027Z,16.30
2023-02-15T23:56:02.277Z,16.80
2023-02-15T23:58:36.744Z,14.30
